sensor_id;sensor_type;location;lat;lon;timestamp;P1;durP1;ratioP1;P2;durP2;ratioP2
4652;SDS011;9900;48.738;9.306;2023-04-06T00:00:59;10.70;;;7.30;;
4652;SDS011;9900;48.738;9.306;2023-04-06T00:03:28;14.23;;;6.43;;
4652;SDS011;9900;48.738;9.306;2023-04-06T00:05:59;11.70;;;7.47;;
4652;SDS011;9900;48.738;9.306;2023-04-06T00:08:27;10.73;;;7.73;;
4652;SDS011;9900;48.738;9.306;2023-04-06T00:10:56;15.97;;;7.63;;
4652;SDS011;9900;48.738;9.306;2023-04-06T00:13:25;15.30;;;7.70;;
4652;SDS011;9900;48.738;9.306;2023-04-06T00:15:54;10.70;;;7.10;;
4652;SDS011;9900;48.738;9.306;2023-04-06T00:18:23;12.20;;;6.70;;
4652;SDS011;9900;48.738;9.306;2023-04-06T00:20:51;11.17;;;7.17;;
4652;SDS011;9900;48.738;9.306;2023-04-06T00:23:21;14.40;;;7.33;;
4652;SDS011;9900;48.738;9.306;2023-04-06T00:25:50;11.33;;;7.87;;
4652;SDS011;9900;48.738;9.306;2023-04-06T00:28:19;14.37;;;8.13;;
4652;SDS011;9900;48.738;9.306;2023-04-06T00:30:52;14.03;;;7.07;;
4652;SDS011;9900;48.738;9.306;2023-04-06T00:33:22;9.10;;;6.93;;
4652;SDS011;9900;48.738;9.306;2023-04-06T00:35:51;13.33;;;7.63;;
4652;SDS011;9900;48.738;9.306;2023-04-06T00:38:22;11.30;;;7.60;;
4652;SDS011;9900;48.738;9.306;2023-04-06T00:40:50;19.03;;;7.60;;
4652;SDS011;9900;48.738;9.306;2023-04-06T00:43:19;11.07;;;7.50;;
4652;SDS011;9900;48.738;9.306;2023-04-06T00:45:48;13.73;;;7.60;;
4652;SDS011;9900;48.738;9.306;2023-04-06T00:48:17;11.10;;;8.20;;
4652;SDS011;9900;48.738;9.306;2023-04-06T00:50:45;11.07;;;8.00;;
4652;SDS011;9900;48.738;9.306;2023-04-06T00:53:14;9.10;;;7.10;;
4652;SDS011;9900;48.738;9.306;2023-04-06T00:55:44;13.53;;;7.73;;
4652;SDS011;9900;48.738;9.306;2023-04-06T00:58:13;11.13;;;7.77;;
4652;SDS011;9900;48.738;9.306;2023-04-06T01:00:42;9.97;;;7.40;;
4652;SDS011;9900;48.738;9.306;2023-04-06T01:03:10;9.77;;;6.80;;
4652;SDS011;9900;48.738;9.306;2023-04-06T01:05:39;12.97;;;7.90;;
4652;SDS011;9900;48.738;9.306;2023-04-06T01:08:09;19.63;;;7.87;;
4652;SDS011;9900;48.738;9.306;2023-04-06T01:10:38;10.93;;;7.30;;
4652;SDS011;9900;48.738;9.306;2023-04-06T01:13:08;12.30;;;7.60;;
4652;SDS011;9900;48.738;9.306;2023-04-06T01:15:37;12.77;;;7.30;;
4652;SDS011;9900;48.738;9.306;2023-04-06T01:18:07;10.13;;;7.03;;
4652;SDS011;9900;48.738;9.306;2023-04-06T01:20:37;11.43;;;7.30;;
4652;SDS011;9900;48.738;9.306;2023-04-06T01:23:07;10.63;;;7.80;;
4652;SDS011;9900;48.738;9.306;2023-04-06T01:25:36;12.30;;;7.37;;
4652;SDS011;9900;48.738;9.306;2023-04-06T01:28:04;11.87;;;8.10;;
4652;SDS011;9900;48.738;9.306;2023-04-06T01:30:33;13.20;;;7.80;;
4652;SDS011;9900;48.738;9.306;2023-04-06T01:33:02;15.60;;;7.83;;
4652;SDS011;9900;48.738;9.306;2023-04-06T01:35:31;14.43;;;7.77;;
4652;SDS011;9900;48.738;9.306;2023-04-06T01:38:00;9.53;;;7.60;;
4652;SDS011;9900;48.738;9.306;2023-04-06T01:40:30;9.47;;;6.87;;
4652;SDS011;9900;48.738;9.306;2023-04-06T01:42:59;13.23;;;7.77;;
4652;SDS011;9900;48.738;9.306;2023-04-06T01:45:27;10.50;;;7.37;;
4652;SDS011;9900;48.738;9.306;2023-04-06T01:47:56;12.30;;;8.03;;
4652;SDS011;9900;48.738;9.306;2023-04-06T01:50:25;10.83;;;7.20;;
4652;SDS011;9900;48.738;9.306;2023-04-06T01:52:54;12.37;;;7.97;;
4652;SDS011;9900;48.738;9.306;2023-04-06T01:55:23;11.20;;;6.83;;
4652;SDS011;9900;48.738;9.306;2023-04-06T01:57:53;11.30;;;7.00;;
4652;SDS011;9900;48.738;9.306;2023-04-06T02:00:22;18.40;;;7.27;;
4652;SDS011;9900;48.738;9.306;2023-04-06T02:02:50;12.50;;;8.07;;
4652;SDS011;9900;48.738;9.306;2023-04-06T02:05:19;10.63;;;7.07;;
4652;SDS011;9900;48.738;9.306;2023-04-06T02:07:48;13.10;;;8.07;;
4652;SDS011;9900;48.738;9.306;2023-04-06T02:10:17;11.20;;;7.20;;
4652;SDS011;9900;48.738;9.306;2023-04-06T02:12:46;11.70;;;6.83;;
4652;SDS011;9900;48.738;9.306;2023-04-06T02:15:16;11.27;;;7.33;;
4652;SDS011;9900;48.738;9.306;2023-04-06T02:17:45;12.43;;;7.80;;
4652;SDS011;9900;48.738;9.306;2023-04-06T02:20:13;16.30;;;7.80;;
4652;SDS011;9900;48.738;9.306;2023-04-06T02:22:42;10.93;;;7.37;;
4652;SDS011;9900;48.738;9.306;2023-04-06T02:25:11;13.47;;;7.03;;
4652;SDS011;9900;48.738;9.306;2023-04-06T02:27:40;11.97;;;7.47;;
4652;SDS011;9900;48.738;9.306;2023-04-06T02:30:09;11.87;;;7.00;;
4652;SDS011;9900;48.738;9.306;2023-04-06T02:32:40;11.83;;;7.50;;
4652;SDS011;9900;48.738;9.306;2023-04-06T02:35:08;9.70;;;7.50;;
4652;SDS011;9900;48.738;9.306;2023-04-06T02:37:37;10.07;;;7.17;;
4652;SDS011;9900;48.738;9.306;2023-04-06T02:40:06;12.67;;;7.50;;
4652;SDS011;9900;48.738;9.306;2023-04-06T02:42:36;8.77;;;6.97;;
4652;SDS011;9900;48.738;9.306;2023-04-06T02:45:05;9.93;;;7.60;;
4652;SDS011;9900;48.738;9.306;2023-04-06T02:47:34;8.20;;;6.60;;
4652;SDS011;9900;48.738;9.306;2023-04-06T02:50:05;12.70;;;8.07;;
4652;SDS011;9900;48.738;9.306;2023-04-06T02:52:34;13.70;;;7.90;;
4652;SDS011;9900;48.738;9.306;2023-04-06T02:55:03;11.63;;;7.47;;
4652;SDS011;9900;48.738;9.306;2023-04-06T02:57:34;9.07;;;7.43;;
4652;SDS011;9900;48.738;9.306;2023-04-06T03:00:03;11.80;;;8.50;;
4652;SDS011;9900;48.738;9.306;2023-04-06T03:02:33;11.03;;;7.50;;
4652;SDS011;9900;48.738;9.306;2023-04-06T03:05:03;12.20;;;7.70;;
4652;SDS011;9900;48.738;9.306;2023-04-06T03:07:33;9.63;;;7.30;;
4652;SDS011;9900;48.738;9.306;2023-04-06T03:10:02;16.23;;;7.80;;
4652;SDS011;9900;48.738;9.306;2023-04-06T03:12:31;16.50;;;8.80;;
4652;SDS011;9900;48.738;9.306;2023-04-06T03:15:00;11.10;;;8.30;;
4652;SDS011;9900;48.738;9.306;2023-04-06T03:17:29;17.77;;;8.00;;
4652;SDS011;9900;48.738;9.306;2023-04-06T03:19:57;12.73;;;7.47;;
4652;SDS011;9900;48.738;9.306;2023-04-06T03:22:28;12.20;;;8.13;;
4652;SDS011;9900;48.738;9.306;2023-04-06T03:24:57;12.50;;;7.97;;
4652;SDS011;9900;48.738;9.306;2023-04-06T03:27:29;11.70;;;7.70;;
4652;SDS011;9900;48.738;9.306;2023-04-06T03:29:58;13.67;;;7.87;;
4652;SDS011;9900;48.738;9.306;2023-04-06T03:32:26;11.33;;;8.03;;
4652;SDS011;9900;48.738;9.306;2023-04-06T03:34:55;15.10;;;8.40;;
4652;SDS011;9900;48.738;9.306;2023-04-06T03:37:24;14.13;;;8.20;;
4652;SDS011;9900;48.738;9.306;2023-04-06T03:39:54;22.17;;;7.83;;
4652;SDS011;9900;48.738;9.306;2023-04-06T03:42:22;13.27;;;8.40;;
4652;SDS011;9900;48.738;9.306;2023-04-06T03:44:51;10.87;;;7.50;;
4652;SDS011;9900;48.738;9.306;2023-04-06T03:47:20;11.10;;;7.50;;
4652;SDS011;9900;48.738;9.306;2023-04-06T03:49:49;14.30;;;7.67;;
4652;SDS011;9900;48.738;9.306;2023-04-06T03:52:17;10.20;;;7.50;;
4652;SDS011;9900;48.738;9.306;2023-04-06T03:54:46;11.40;;;8.40;;
4652;SDS011;9900;48.738;9.306;2023-04-06T03:57:16;9.87;;;7.67;;
4652;SDS011;9900;48.738;9.306;2023-04-06T03:59:45;11.30;;;8.17;;
4652;SDS011;9900;48.738;9.306;2023-04-06T04:02:14;12.93;;;7.27;;
4652;SDS011;9900;48.738;9.306;2023-04-06T04:04:43;12.10;;;7.37;;
4652;SDS011;9900;48.738;9.306;2023-04-06T04:07:11;14.27;;;8.70;;
4652;SDS011;9900;48.738;9.306;2023-04-06T04:09:40;14.93;;;8.60;;
4652;SDS011;9900;48.738;9.306;2023-04-06T04:12:09;19.50;;;10.37;;
4652;SDS011;9900;48.738;9.306;2023-04-06T04:14:39;25.70;;;12.70;;
4652;SDS011;9900;48.738;9.306;2023-04-06T04:17:08;16.30;;;10.10;;
4652;SDS011;9900;48.738;9.306;2023-04-06T04:19:36;13.20;;;8.90;;
4652;SDS011;9900;48.738;9.306;2023-04-06T04:22:05;9.63;;;7.50;;
4652;SDS011;9900;48.738;9.306;2023-04-06T04:24:34;15.73;;;7.73;;
4652;SDS011;9900;48.738;9.306;2023-04-06T04:27:03;14.90;;;7.40;;
4652;SDS011;9900;48.738;9.306;2023-04-06T04:29:31;11.20;;;8.20;;
4652;SDS011;9900;48.738;9.306;2023-04-06T04:32:02;13.57;;;7.67;;
4652;SDS011;9900;48.738;9.306;2023-04-06T04:34:30;11.90;;;8.30;;
4652;SDS011;9900;48.738;9.306;2023-04-06T04:37:00;11.70;;;8.03;;
4652;SDS011;9900;48.738;9.306;2023-04-06T04:39:28;11.80;;;7.20;;
4652;SDS011;9900;48.738;9.306;2023-04-06T04:41:57;13.93;;;7.40;;
4652;SDS011;9900;48.738;9.306;2023-04-06T04:44:26;10.10;;;7.13;;
4652;SDS011;9900;48.738;9.306;2023-04-06T04:46:54;14.50;;;8.20;;
4652;SDS011;9900;48.738;9.306;2023-04-06T04:49:25;13.73;;;8.60;;
4652;SDS011;9900;48.738;9.306;2023-04-06T04:51:54;10.27;;;7.20;;
4652;SDS011;9900;48.738;9.306;2023-04-06T04:54:22;13.17;;;8.00;;
4652;SDS011;9900;48.738;9.306;2023-04-06T04:56:51;13.77;;;7.70;;
4652;SDS011;9900;48.738;9.306;2023-04-06T04:59:20;12.90;;;8.20;;
4652;SDS011;9900;48.738;9.306;2023-04-06T05:01:48;17.40;;;9.00;;
4652;SDS011;9900;48.738;9.306;2023-04-06T05:04:22;15.13;;;9.85;;
4652;SDS011;9900;48.738;9.306;2023-04-06T05:06:52;14.03;;;8.23;;
4652;SDS011;9900;48.738;9.306;2023-04-06T05:09:30;13.77;;;8.30;;
4652;SDS011;9900;48.738;9.306;2023-04-06T05:11:59;11.10;;;7.70;;
4652;SDS011;9900;48.738;9.306;2023-04-06T05:14:28;15.07;;;9.43;;
4652;SDS011;9900;48.738;9.306;2023-04-06T05:16:57;12.33;;;8.50;;
4652;SDS011;9900;48.738;9.306;2023-04-06T05:19:25;12.60;;;7.90;;
4652;SDS011;9900;48.738;9.306;2023-04-06T05:21:55;13.27;;;8.00;;
4652;SDS011;9900;48.738;9.306;2023-04-06T05:24:24;13.97;;;8.10;;
4652;SDS011;9900;48.738;9.306;2023-04-06T05:26:54;12.13;;;7.83;;
4652;SDS011;9900;48.738;9.306;2023-04-06T05:29:22;12.60;;;7.80;;
4652;SDS011;9900;48.738;9.306;2023-04-06T05:31:51;10.97;;;7.53;;
4652;SDS011;9900;48.738;9.306;2023-04-06T05:34:20;14.50;;;7.40;;
4652;SDS011;9900;48.738;9.306;2023-04-06T05:36:49;15.43;;;8.03;;
4652;SDS011;9900;48.738;9.306;2023-04-06T05:39:19;11.70;;;8.63;;
4652;SDS011;9900;48.738;9.306;2023-04-06T05:41:48;14.30;;;8.10;;
4652;SDS011;9900;48.738;9.306;2023-04-06T05:44:17;11.47;;;8.13;;
4652;SDS011;9900;48.738;9.306;2023-04-06T05:46:46;17.27;;;9.33;;
4652;SDS011;9900;48.738;9.306;2023-04-06T05:49:15;16.27;;;8.67;;
4652;SDS011;9900;48.738;9.306;2023-04-06T05:51:43;19.60;;;8.93;;
4652;SDS011;9900;48.738;9.306;2023-04-06T05:54:12;12.20;;;8.57;;
4652;SDS011;9900;48.738;9.306;2023-04-06T05:56:42;26.07;;;8.73;;
4652;SDS011;9900;48.738;9.306;2023-04-06T05:59:11;15.60;;;7.60;;
4652;SDS011;9900;48.738;9.306;2023-04-06T06:01:40;15.50;;;8.47;;
4652;SDS011;9900;48.738;9.306;2023-04-06T06:04:08;18.30;;;8.30;;
4652;SDS011;9900;48.738;9.306;2023-04-06T06:06:37;14.90;;;9.13;;
4652;SDS011;9900;48.738;9.306;2023-04-06T06:09:06;12.57;;;8.10;;
4652;SDS011;9900;48.738;9.306;2023-04-06T06:11:35;13.53;;;7.87;;
4652;SDS011;9900;48.738;9.306;2023-04-06T06:14:05;16.73;;;9.13;;
4652;SDS011;9900;48.738;9.306;2023-04-06T06:16:34;18.53;;;8.90;;
4652;SDS011;9900;48.738;9.306;2023-04-06T06:19:03;11.23;;;7.50;;
4652;SDS011;9900;48.738;9.306;2023-04-06T06:21:32;18.40;;;9.00;;
4652;SDS011;9900;48.738;9.306;2023-04-06T06:24:01;14.67;;;7.80;;
4652;SDS011;9900;48.738;9.306;2023-04-06T06:26:30;15.47;;;9.30;;
4652;SDS011;9900;48.738;9.306;2023-04-06T06:28:58;14.43;;;8.00;;
4652;SDS011;9900;48.738;9.306;2023-04-06T06:31:28;11.53;;;7.83;;
4652;SDS011;9900;48.738;9.306;2023-04-06T06:33:57;15.73;;;8.83;;
4652;SDS011;9900;48.738;9.306;2023-04-06T06:36:26;12.80;;;8.40;;
4652;SDS011;9900;48.738;9.306;2023-04-06T06:38:55;13.63;;;8.10;;
4652;SDS011;9900;48.738;9.306;2023-04-06T06:41:24;14.20;;;8.80;;
4652;SDS011;9900;48.738;9.306;2023-04-06T06:43:53;11.90;;;8.20;;
4652;SDS011;9900;48.738;9.306;2023-04-06T06:46:22;13.77;;;7.80;;
4652;SDS011;9900;48.738;9.306;2023-04-06T06:48:52;20.67;;;8.63;;
4652;SDS011;9900;48.738;9.306;2023-04-06T06:51:20;14.87;;;9.03;;
4652;SDS011;9900;48.738;9.306;2023-04-06T06:53:49;14.67;;;8.40;;
4652;SDS011;9900;48.738;9.306;2023-04-06T06:56:18;16.63;;;8.93;;
4652;SDS011;9900;48.738;9.306;2023-04-06T06:58:47;15.43;;;8.53;;
4652;SDS011;9900;48.738;9.306;2023-04-06T07:01:16;12.50;;;8.90;;
4652;SDS011;9900;48.738;9.306;2023-04-06T07:03:45;16.90;;;9.13;;
4652;SDS011;9900;48.738;9.306;2023-04-06T07:06:15;16.90;;;8.50;;
4652;SDS011;9900;48.738;9.306;2023-04-06T07:08:44;16.57;;;9.00;;
4652;SDS011;9900;48.738;9.306;2023-04-06T07:11:13;15.73;;;9.00;;
4652;SDS011;9900;48.738;9.306;2023-04-06T07:13:42;11.73;;;8.60;;
4652;SDS011;9900;48.738;9.306;2023-04-06T07:16:11;20.47;;;9.63;;
4652;SDS011;9900;48.738;9.306;2023-04-06T07:18:40;15.40;;;8.50;;
4652;SDS011;9900;48.738;9.306;2023-04-06T07:21:09;11.43;;;9.00;;
4652;SDS011;9900;48.738;9.306;2023-04-06T07:23:39;16.67;;;8.77;;
4652;SDS011;9900;48.738;9.306;2023-04-06T07:26:07;17.53;;;9.20;;
4652;SDS011;9900;48.738;9.306;2023-04-06T07:28:36;15.00;;;9.27;;
4652;SDS011;9900;48.738;9.306;2023-04-06T07:31:05;14.80;;;9.00;;
4652;SDS011;9900;48.738;9.306;2023-04-06T07:33:34;11.47;;;8.07;;
4652;SDS011;9900;48.738;9.306;2023-04-06T07:36:03;12.07;;;8.30;;
4652;SDS011;9900;48.738;9.306;2023-04-06T07:38:32;13.30;;;8.80;;
4652;SDS011;9900;48.738;9.306;2023-04-06T07:41:02;14.90;;;8.50;;
4652;SDS011;9900;48.738;9.306;2023-04-06T07:43:32;10.20;;;8.40;;
4652;SDS011;9900;48.738;9.306;2023-04-06T07:46:00;12.33;;;8.40;;
4652;SDS011;9900;48.738;9.306;2023-04-06T07:48:30;14.13;;;8.73;;
4652;SDS011;9900;48.738;9.306;2023-04-06T07:51:01;15.73;;;8.63;;
4652;SDS011;9900;48.738;9.306;2023-04-06T07:53:31;14.57;;;9.03;;
4652;SDS011;9900;48.738;9.306;2023-04-06T07:55:59;16.70;;;9.03;;
4652;SDS011;9900;48.738;9.306;2023-04-06T07:58:29;11.70;;;8.77;;
4652;SDS011;9900;48.738;9.306;2023-04-06T08:00:58;10.90;;;8.37;;
4652;SDS011;9900;48.738;9.306;2023-04-06T08:03:27;17.73;;;9.80;;
4652;SDS011;9900;48.738;9.306;2023-04-06T08:05:56;14.10;;;8.70;;
4652;SDS011;9900;48.738;9.306;2023-04-06T08:08:25;12.20;;;8.50;;
4652;SDS011;9900;48.738;9.306;2023-04-06T08:10:54;14.57;;;8.57;;
4652;SDS011;9900;48.738;9.306;2023-04-06T08:13:22;14.33;;;8.10;;
4652;SDS011;9900;48.738;9.306;2023-04-06T08:15:53;11.23;;;8.47;;
4652;SDS011;9900;48.738;9.306;2023-04-06T08:18:22;11.10;;;8.20;;
4652;SDS011;9900;48.738;9.306;2023-04-06T08:20:51;15.70;;;9.20;;
4652;SDS011;9900;48.738;9.306;2023-04-06T08:23:19;15.20;;;9.33;;
4652;SDS011;9900;48.738;9.306;2023-04-06T08:25:48;21.50;;;9.57;;
4652;SDS011;9900;48.738;9.306;2023-04-06T08:28:17;11.00;;;8.83;;
4652;SDS011;9900;48.738;9.306;2023-04-06T08:30:46;12.33;;;8.60;;
4652;SDS011;9900;48.738;9.306;2023-04-06T08:33:16;15.90;;;9.13;;
4652;SDS011;9900;48.738;9.306;2023-04-06T08:35:45;13.67;;;8.67;;
4652;SDS011;9900;48.738;9.306;2023-04-06T08:38:14;13.60;;;8.90;;
4652;SDS011;9900;48.738;9.306;2023-04-06T08:40:42;11.77;;;8.53;;
4652;SDS011;9900;48.738;9.306;2023-04-06T08:43:13;14.13;;;10.10;;
4652;SDS011;9900;48.738;9.306;2023-04-06T08:45:42;10.43;;;8.67;;
4652;SDS011;9900;48.738;9.306;2023-04-06T08:48:11;12.67;;;9.07;;
4652;SDS011;9900;48.738;9.306;2023-04-06T08:50:42;11.73;;;8.40;;
4652;SDS011;9900;48.738;9.306;2023-04-06T08:53:11;12.63;;;8.90;;
4652;SDS011;9900;48.738;9.306;2023-04-06T08:55:41;13.50;;;9.20;;
4652;SDS011;9900;48.738;9.306;2023-04-06T08:58:11;12.77;;;9.20;;
4652;SDS011;9900;48.738;9.306;2023-04-06T09:00:50;12.07;;;9.00;;
4652;SDS011;9900;48.738;9.306;2023-04-06T09:03:19;11.73;;;8.00;;
4652;SDS011;9900;48.738;9.306;2023-04-06T09:05:51;10.60;;;8.57;;
4652;SDS011;9900;48.738;9.306;2023-04-06T09:08:19;13.07;;;8.40;;
4652;SDS011;9900;48.738;9.306;2023-04-06T09:10:48;12.87;;;8.90;;
4652;SDS011;9900;48.738;9.306;2023-04-06T09:13:19;12.30;;;8.00;;
4652;SDS011;9900;48.738;9.306;2023-04-06T09:15:57;12.40;;;8.63;;
4652;SDS011;9900;48.738;9.306;2023-04-06T09:18:28;13.30;;;8.70;;
4652;SDS011;9900;48.738;9.306;2023-04-06T09:21:00;14.30;;;8.10;;
4652;SDS011;9900;48.738;9.306;2023-04-06T09:23:29;14.23;;;9.20;;
4652;SDS011;9900;48.738;9.306;2023-04-06T09:26:05;9.87;;;8.40;;
4652;SDS011;9900;48.738;9.306;2023-04-06T09:28:44;11.57;;;8.27;;
4652;SDS011;9900;48.738;9.306;2023-04-06T09:31:14;13.30;;;8.30;;
4652;SDS011;9900;48.738;9.306;2023-04-06T09:33:44;11.43;;;8.80;;
4652;SDS011;9900;48.738;9.306;2023-04-06T09:36:14;16.63;;;8.63;;
4652;SDS011;9900;48.738;9.306;2023-04-06T09:38:53;12.73;;;8.60;;
4652;SDS011;9900;48.738;9.306;2023-04-06T09:41:23;14.77;;;9.20;;
4652;SDS011;9900;48.738;9.306;2023-04-06T09:43:52;12.97;;;8.73;;
4652;SDS011;9900;48.738;9.306;2023-04-06T09:46:31;15.67;;;8.80;;
4652;SDS011;9900;48.738;9.306;2023-04-06T09:49:21;14.23;;;9.03;;
4652;SDS011;9900;48.738;9.306;2023-04-06T09:51:54;12.70;;;8.17;;
4652;SDS011;9900;48.738;9.306;2023-04-06T09:54:24;13.90;;;8.50;;
4652;SDS011;9900;48.738;9.306;2023-04-06T09:56:56;12.97;;;8.57;;
4652;SDS011;9900;48.738;9.306;2023-04-06T09:59:31;15.00;;;7.77;;
4652;SDS011;9900;48.738;9.306;2023-04-06T10:02:05;11.00;;;7.97;;
4652;SDS011;9900;48.738;9.306;2023-04-06T10:04:37;9.90;;;6.93;;
4652;SDS011;9900;48.738;9.306;2023-04-06T10:07:10;11.23;;;7.57;;
4652;SDS011;9900;48.738;9.306;2023-04-06T10:09:40;11.87;;;7.70;;
4652;SDS011;9900;48.738;9.306;2023-04-06T10:12:09;10.07;;;8.27;;
4652;SDS011;9900;48.738;9.306;2023-04-06T10:14:38;12.47;;;6.40;;
4652;SDS011;9900;48.738;9.306;2023-04-06T10:17:08;9.33;;;6.77;;
4652;SDS011;9900;48.738;9.306;2023-04-06T10:19:41;8.23;;;5.97;;
4652;SDS011;9900;48.738;9.306;2023-04-06T10:22:18;10.47;;;5.10;;
4652;SDS011;9900;48.738;9.306;2023-04-06T10:24:50;8.93;;;6.80;;
4652;SDS011;9900;48.738;9.306;2023-04-06T10:27:27;9.77;;;6.57;;
4652;SDS011;9900;48.738;9.306;2023-04-06T10:30:00;7.57;;;6.03;;
4652;SDS011;9900;48.738;9.306;2023-04-06T10:32:33;11.03;;;6.90;;
4652;SDS011;9900;48.738;9.306;2023-04-06T10:35:04;9.50;;;6.50;;
4652;SDS011;9900;48.738;9.306;2023-04-06T10:37:47;8.33;;;6.53;;
4652;SDS011;9900;48.738;9.306;2023-04-06T10:40:18;10.13;;;6.70;;
4652;SDS011;9900;48.738;9.306;2023-04-06T10:42:48;8.83;;;5.93;;
4652;SDS011;9900;48.738;9.306;2023-04-06T10:45:21;8.70;;;6.23;;
4652;SDS011;9900;48.738;9.306;2023-04-06T10:47:52;8.43;;;6.50;;
4652;SDS011;9900;48.738;9.306;2023-04-06T10:50:22;9.37;;;6.23;;
4652;SDS011;9900;48.738;9.306;2023-04-06T10:53:02;7.63;;;5.20;;
4652;SDS011;9900;48.738;9.306;2023-04-06T10:55:31;7.70;;;6.07;;
4652;SDS011;9900;48.738;9.306;2023-04-06T10:58:00;8.40;;;5.70;;
4652;SDS011;9900;48.738;9.306;2023-04-06T11:00:28;6.83;;;5.70;;
4652;SDS011;9900;48.738;9.306;2023-04-06T11:03:15;9.07;;;5.67;;
4652;SDS011;9900;48.738;9.306;2023-04-06T11:05:44;7.23;;;5.67;;
4652;SDS011;9900;48.738;9.306;2023-04-06T11:08:29;8.53;;;6.23;;
4652;SDS011;9900;48.738;9.306;2023-04-06T11:11:06;11.40;;;4.97;;
4652;SDS011;9900;48.738;9.306;2023-04-06T11:13:39;7.47;;;5.80;;
4652;SDS011;9900;48.738;9.306;2023-04-06T11:16:12;8.67;;;6.40;;
4652;SDS011;9900;48.738;9.306;2023-04-06T11:18:49;6.73;;;5.13;;
4652;SDS011;9900;48.738;9.306;2023-04-06T11:21:19;6.07;;;4.80;;
4652;SDS011;9900;48.738;9.306;2023-04-06T11:23:49;8.40;;;5.90;;
4652;SDS011;9900;48.738;9.306;2023-04-06T11:26:18;6.43;;;5.33;;
4652;SDS011;9900;48.738;9.306;2023-04-06T11:28:47;7.10;;;4.90;;
4652;SDS011;9900;48.738;9.306;2023-04-06T11:31:16;4.63;;;4.03;;
4652;SDS011;9900;48.738;9.306;2023-04-06T11:33:45;4.70;;;4.20;;
4652;SDS011;9900;48.738;9.306;2023-04-06T11:36:13;6.83;;;5.30;;
4652;SDS011;9900;48.738;9.306;2023-04-06T11:38:43;8.47;;;5.07;;
4652;SDS011;9900;48.738;9.306;2023-04-06T11:41:13;8.83;;;5.77;;
4652;SDS011;9900;48.738;9.306;2023-04-06T11:43:45;7.43;;;5.17;;
4652;SDS011;9900;48.738;9.306;2023-04-06T11:46:17;8.10;;;5.93;;
4652;SDS011;9900;48.738;9.306;2023-04-06T11:48:46;9.63;;;5.67;;
4652;SDS011;9900;48.738;9.306;2023-04-06T11:51:21;5.47;;;4.33;;
4652;SDS011;9900;48.738;9.306;2023-04-06T11:53:50;4.43;;;4.03;;
4652;SDS011;9900;48.738;9.306;2023-04-06T11:56:24;7.77;;;4.30;;
4652;SDS011;9900;48.738;9.306;2023-04-06T11:58:57;5.57;;;4.77;;
4652;SDS011;9900;48.738;9.306;2023-04-06T12:01:27;6.50;;;4.30;;
4652;SDS011;9900;48.738;9.306;2023-04-06T12:03:58;6.13;;;4.80;;
4652;SDS011;9900;48.738;9.306;2023-04-06T12:06:27;6.90;;;4.47;;
4652;SDS011;9900;48.738;9.306;2023-04-06T12:08:55;5.60;;;4.90;;
4652;SDS011;9900;48.738;9.306;2023-04-06T12:11:26;7.57;;;4.63;;
4652;SDS011;9900;48.738;9.306;2023-04-06T12:13:55;6.30;;;4.50;;
4652;SDS011;9900;48.738;9.306;2023-04-06T12:16:23;7.03;;;5.10;;
4652;SDS011;9900;48.738;9.306;2023-04-06T12:18:52;7.03;;;4.93;;
4652;SDS011;9900;48.738;9.306;2023-04-06T12:21:21;6.17;;;5.07;;
4652;SDS011;9900;48.738;9.306;2023-04-06T12:23:50;6.10;;;4.10;;
4652;SDS011;9900;48.738;9.306;2023-04-06T12:26:19;5.83;;;4.57;;
4652;SDS011;9900;48.738;9.306;2023-04-06T12:28:49;7.87;;;5.40;;
4652;SDS011;9900;48.738;9.306;2023-04-06T12:31:18;5.30;;;4.30;;
4652;SDS011;9900;48.738;9.306;2023-04-06T12:33:48;6.40;;;4.60;;
4652;SDS011;9900;48.738;9.306;2023-04-06T12:36:18;5.33;;;4.13;;
4652;SDS011;9900;48.738;9.306;2023-04-06T12:38:48;5.30;;;3.47;;
4652;SDS011;9900;48.738;9.306;2023-04-06T12:41:18;4.30;;;3.50;;
4652;SDS011;9900;48.738;9.306;2023-04-06T12:43:48;5.93;;;4.50;;
4652;SDS011;9900;48.738;9.306;2023-04-06T12:46:17;6.00;;;3.83;;
4652;SDS011;9900;48.738;9.306;2023-04-06T12:48:47;3.97;;;3.57;;
4652;SDS011;9900;48.738;9.306;2023-04-06T12:51:16;7.10;;;4.00;;
4652;SDS011;9900;48.738;9.306;2023-04-06T12:53:45;5.77;;;4.20;;
4652;SDS011;9900;48.738;9.306;2023-04-06T12:56:14;4.20;;;3.80;;
4652;SDS011;9900;48.738;9.306;2023-04-06T12:58:45;6.13;;;4.83;;
4652;SDS011;9900;48.738;9.306;2023-04-06T13:01:15;4.93;;;3.80;;
4652;SDS011;9900;48.738;9.306;2023-04-06T13:03:44;4.20;;;3.57;;
4652;SDS011;9900;48.738;9.306;2023-04-06T13:06:13;6.17;;;3.80;;
4652;SDS011;9900;48.738;9.306;2023-04-06T13:08:42;4.60;;;4.00;;
4652;SDS011;9900;48.738;9.306;2023-04-06T13:11:11;4.43;;;3.90;;
4652;SDS011;9900;48.738;9.306;2023-04-06T13:13:40;5.37;;;4.50;;
4652;SDS011;9900;48.738;9.306;2023-04-06T13:16:08;9.77;;;5.37;;
4652;SDS011;9900;48.738;9.306;2023-04-06T13:18:39;6.50;;;4.43;;
4652;SDS011;9900;48.738;9.306;2023-04-06T13:21:08;5.27;;;4.20;;
4652;SDS011;9900;48.738;9.306;2023-04-06T13:23:36;4.50;;;3.97;;
4652;SDS011;9900;48.738;9.306;2023-04-06T13:26:06;5.30;;;3.83;;
4652;SDS011;9900;48.738;9.306;2023-04-06T13:28:35;4.30;;;3.90;;
4652;SDS011;9900;48.738;9.306;2023-04-06T13:31:06;5.30;;;3.90;;
4652;SDS011;9900;48.738;9.306;2023-04-06T13:33:35;8.03;;;3.63;;
4652;SDS011;9900;48.738;9.306;2023-04-06T13:36:06;3.47;;;2.93;;
4652;SDS011;9900;48.738;9.306;2023-04-06T13:38:35;6.70;;;4.50;;
4652;SDS011;9900;48.738;9.306;2023-04-06T13:41:06;4.43;;;3.80;;
4652;SDS011;9900;48.738;9.306;2023-04-06T13:43:34;5.93;;;4.63;;
4652;SDS011;9900;48.738;9.306;2023-04-06T13:46:03;7.20;;;4.03;;
4652;SDS011;9900;48.738;9.306;2023-04-06T13:48:32;4.67;;;3.70;;
4652;SDS011;9900;48.738;9.306;2023-04-06T13:51:09;6.60;;;3.73;;
4652;SDS011;9900;48.738;9.306;2023-04-06T13:53:38;5.33;;;4.13;;
4652;SDS011;9900;48.738;9.306;2023-04-06T13:56:08;5.40;;;4.20;;
4652;SDS011;9900;48.738;9.306;2023-04-06T13:58:37;7.27;;;4.70;;
4652;SDS011;9900;48.738;9.306;2023-04-06T14:01:06;6.07;;;4.70;;
4652;SDS011;9900;48.738;9.306;2023-04-06T14:03:37;6.87;;;4.80;;
4652;SDS011;9900;48.738;9.306;2023-04-06T14:06:11;5.80;;;4.30;;
4652;SDS011;9900;48.738;9.306;2023-04-06T14:08:57;6.23;;;4.50;;
4652;SDS011;9900;48.738;9.306;2023-04-06T14:11:26;6.23;;;4.20;;
4652;SDS011;9900;48.738;9.306;2023-04-06T14:13:56;5.87;;;4.00;;
4652;SDS011;9900;48.738;9.306;2023-04-06T14:16:25;5.37;;;4.17;;
4652;SDS011;9900;48.738;9.306;2023-04-06T14:18:54;5.70;;;4.73;;
4652;SDS011;9900;48.738;9.306;2023-04-06T14:21:26;9.63;;;3.73;;
4652;SDS011;9900;48.738;9.306;2023-04-06T14:23:55;7.43;;;4.50;;
4652;SDS011;9900;48.738;9.306;2023-04-06T14:26:26;7.50;;;4.47;;
4652;SDS011;9900;48.738;9.306;2023-04-06T14:28:54;9.97;;;4.57;;
4652;SDS011;9900;48.738;9.306;2023-04-06T14:31:23;5.80;;;4.63;;
4652;SDS011;9900;48.738;9.306;2023-04-06T14:33:52;6.07;;;4.63;;
4652;SDS011;9900;48.738;9.306;2023-04-06T14:36:21;6.90;;;4.40;;
4652;SDS011;9900;48.738;9.306;2023-04-06T14:38:51;4.80;;;3.87;;
4652;SDS011;9900;48.738;9.306;2023-04-06T14:41:22;6.30;;;3.83;;
4652;SDS011;9900;48.738;9.306;2023-04-06T14:43:51;6.53;;;4.53;;
4652;SDS011;9900;48.738;9.306;2023-04-06T14:46:20;6.43;;;4.33;;
4652;SDS011;9900;48.738;9.306;2023-04-06T14:48:49;7.30;;;5.13;;
4652;SDS011;9900;48.738;9.306;2023-04-06T14:51:18;5.10;;;4.20;;
4652;SDS011;9900;48.738;9.306;2023-04-06T14:53:46;9.47;;;4.33;;
4652;SDS011;9900;48.738;9.306;2023-04-06T14:56:20;6.20;;;4.10;;
4652;SDS011;9900;48.738;9.306;2023-04-06T14:58:49;5.83;;;4.10;;
4652;SDS011;9900;48.738;9.306;2023-04-06T15:01:18;5.93;;;4.03;;
4652;SDS011;9900;48.738;9.306;2023-04-06T15:03:47;5.10;;;3.67;;
4652;SDS011;9900;48.738;9.306;2023-04-06T15:06:17;5.87;;;4.20;;
4652;SDS011;9900;48.738;9.306;2023-04-06T15:08:47;7.50;;;4.00;;
4652;SDS011;9900;48.738;9.306;2023-04-06T15:11:17;6.37;;;4.40;;
4652;SDS011;9900;48.738;9.306;2023-04-06T15:13:47;8.43;;;4.53;;
4652;SDS011;9900;48.738;9.306;2023-04-06T15:16:15;5.80;;;3.80;;
4652;SDS011;9900;48.738;9.306;2023-04-06T15:18:44;7.43;;;4.63;;
4652;SDS011;9900;48.738;9.306;2023-04-06T15:21:14;5.57;;;4.00;;